sensor_id;sensor_type;location;lat;lon;timestamp;temperature;humidity
21834;DHT22;11079;51.092;3.458;2023-05-10T00:02:14;14.20;99.90
21834;DHT22;11079;51.092;3.458;2023-05-10T00:04:41;14.30;99.90
21834;DHT22;11079;51.092;3.458;2023-05-10T00:07:10;14.30;99.90
21834;DHT22;11079;51.092;3.458;2023-05-10T00:09:36;14.30;99.90
21834;DHT22;11079;51.092;3.458;2023-05-10T00:12:01;14.20;99.90
21834;DHT22;11079;51.092;3.458;2023-05-10T00:14:27;14.20;99.90
21834;DHT22;11079;51.092;3.458;2023-05-10T00:16:54;14.30;99.90
21834;DHT22;11079;51.092;3.458;2023-05-10T00:19:19;14.30;99.90
21834;DHT22;11079;51.092;3.458;2023-05-10T00:21:45;14.40;99.90
21834;DHT22;11079;51.092;3.458;2023-05-10T00:24:11;14.40;99.90
21834;DHT22;11079;51.092;3.458;2023-05-10T00:26:37;14.40;99.90
21834;DHT22;11079;51.092;3.458;2023-05-10T00:29:02;14.40;99.90
21834;DHT22;11079;51.092;3.458;2023-05-10T00:31:29;14.20;99.90
21834;DHT22;11079;51.092;3.458;2023-05-10T00:33:55;14.20;99.90
21834;DHT22;11079;51.092;3.458;2023-05-10T00:36:21;14.00;99.90
21834;DHT22;11079;51.092;3.458;2023-05-10T00:38:48;14.00;99.90
21834;DHT22;11079;51.092;3.458;2023-05-10T00:41:14;13.90;99.90
21834;DHT22;11079;51.092;3.458;2023-05-10T00:43:51;14.00;99.90
21834;DHT22;11079;51.092;3.458;2023-05-10T00:46:17;14.00;99.90
21834;DHT22;11079;51.092;3.458;2023-05-10T00:48:43;13.90;99.90
21834;DHT22;11079;51.092;3.458;2023-05-10T00:51:10;13.80;99.90
21834;DHT22;11079;51.092;3.458;2023-05-10T00:53:37;13.70;99.90
21834;DHT22;11079;51.092;3.458;2023-05-10T00:56:03;13.80;99.90
21834;DHT22;11079;51.092;3.458;2023-05-10T00:58:49;13.70;99.90
21834;DHT22;11079;51.092;3.458;2023-05-10T01:01:50;13.80;99.90
21834;DHT22;11079;51.092;3.458;2023-05-10T01:04:17;13.70;99.90
21834;DHT22;11079;51.092;3.458;2023-05-10T01:06:51;13.80;99.90
21834;DHT22;11079;51.092;3.458;2023-05-10T01:09:19;13.90;99.90
21834;DHT22;11079;51.092;3.458;2023-05-10T01:11:45;13.90;99.90
21834;DHT22;11079;51.092;3.458;2023-05-10T01:14:11;13.80;99.90
21834;DHT22;11079;51.092;3.458;2023-05-10T01:16:39;13.70;99.90
21834;DHT22;11079;51.092;3.458;2023-05-10T01:19:29;13.70;99.90
21834;DHT22;11079;51.092;3.458;2023-05-10T01:22:12;13.70;99.90
21834;DHT22;11079;51.092;3.458;2023-05-10T01:30:08;13.60;99.90
21834;DHT22;11079;51.092;3.458;2023-05-10T01:35:23;13.80;99.90
21834;DHT22;11079;51.092;3.458;2023-05-10T01:47:01;13.70;99.90
21834;DHT22;11079;51.092;3.458;2023-05-10T01:49:32;13.70;99.90
21834;DHT22;11079;51.092;3.458;2023-05-10T01:52:06;13.70;99.90
21834;DHT22;11079;51.092;3.458;2023-05-10T01:54:34;13.60;99.90
21834;DHT22;11079;51.092;3.458;2023-05-10T01:57:05;13.60;99.90
21834;DHT22;11079;51.092;3.458;2023-05-10T01:59:38;13.60;99.90
21834;DHT22;11079;51.092;3.458;2023-05-10T02:02:06;13.60;99.90
21834;DHT22;11079;51.092;3.458;2023-05-10T02:04:35;13.70;99.90
21834;DHT22;11079;51.092;3.458;2023-05-10T02:07:03;13.60;99.90
21834;DHT22;11079;51.092;3.458;2023-05-10T02:09:33;13.60;99.90
21834;DHT22;11079;51.092;3.458;2023-05-10T02:12:08;13.50;99.90
21834;DHT22;11079;51.092;3.458;2023-05-10T02:14:36;13.50;99.90
21834;DHT22;11079;51.092;3.458;2023-05-10T02:17:05;13.50;99.90
21834;DHT22;11079;51.092;3.458;2023-05-10T02:19:33;13.50;99.90
21834;DHT22;11079;51.092;3.458;2023-05-10T02:22:00;13.50;99.90
21834;DHT22;11079;51.092;3.458;2023-05-10T02:24:28;13.60;99.90
21834;DHT22;11079;51.092;3.458;2023-05-10T02:26:57;13.60;99.90
21834;DHT22;11079;51.092;3.458;2023-05-10T02:29:28;13.60;99.90
21834;DHT22;11079;51.092;3.458;2023-05-10T02:31:55;13.50;99.90
21834;DHT22;11079;51.092;3.458;2023-05-10T02:34:22;13.40;99.90
21834;DHT22;11079;51.092;3.458;2023-05-10T02:36:52;13.40;99.90
21834;DHT22;11079;51.092;3.458;2023-05-10T02:39:20;13.50;99.90
21834;DHT22;11079;51.092;3.458;2023-05-10T02:41:48;13.40;99.90
21834;DHT22;11079;51.092;3.458;2023-05-10T02:44:15;13.50;99.90
21834;DHT22;11079;51.092;3.458;2023-05-10T02:46:43;13.50;99.90
21834;DHT22;11079;51.092;3.458;2023-05-10T02:49:09;13.60;99.90
21834;DHT22;11079;51.092;3.458;2023-05-10T02:51:37;13.60;99.90
21834;DHT22;11079;51.092;3.458;2023-05-10T02:54:12;13.50;99.90
21834;DHT22;11079;51.092;3.458;2023-05-10T02:56:43;13.60;99.90
21834;DHT22;11079;51.092;3.458;2023-05-10T02:59:12;13.50;99.90
21834;DHT22;11079;51.092;3.458;2023-05-10T03:01:38;13.50;99.90
21834;DHT22;11079;51.092;3.458;2023-05-10T03:04:04;13.50;99.90
21834;DHT22;11079;51.092;3.458;2023-05-10T03:06:30;13.40;99.90
21834;DHT22;11079;51.092;3.458;2023-05-10T03:08:57;13.40;99.90
21834;DHT22;11079;51.092;3.458;2023-05-10T03:11:37;13.50;99.90
21834;DHT22;11079;51.092;3.458;2023-05-10T03:14:21;13.40;99.90
21834;DHT22;11079;51.092;3.458;2023-05-10T03:17:06;13.40;99.90
21834;DHT22;11079;51.092;3.458;2023-05-10T03:19:58;13.40;99.90
21834;DHT22;11079;51.092;3.458;2023-05-10T03:22:36;13.40;99.90
21834;DHT22;11079;51.092;3.458;2023-05-10T03:25:06;13.40;99.90
21834;DHT22;11079;51.092;3.458;2023-05-10T03:27:35;13.40;99.90
21834;DHT22;11079;51.092;3.458;2023-05-10T03:30:03;13.40;99.90
21834;DHT22;11079;51.092;3.458;2023-05-10T03:32:30;13.40;99.90
21834;DHT22;11079;51.092;3.458;2023-05-10T03:34:58;13.50;99.90
21834;DHT22;11079;51.092;3.458;2023-05-10T03:37:24;13.50;99.90
21834;DHT22;11079;51.092;3.458;2023-05-10T03:39:49;13.50;99.90
21834;DHT22;11079;51.092;3.458;2023-05-10T03:42:15;13.60;99.90
21834;DHT22;11079;51.092;3.458;2023-05-10T03:44:43;13.60;99.90
21834;DHT22;11079;51.092;3.458;2023-05-10T03:47:09;13.60;99.90
21834;DHT22;11079;51.092;3.458;2023-05-10T03:49:35;13.70;99.90
21834;DHT22;11079;51.092;3.458;2023-05-10T03:52:07;13.60;99.90
21834;DHT22;11079;51.092;3.458;2023-05-10T03:54:37;13.60;99.90
21834;DHT22;11079;51.092;3.458;2023-05-10T03:57:04;13.60;99.90
21834;DHT22;11079;51.092;3.458;2023-05-10T03:59:35;13.50;99.90
21834;DHT22;11079;51.092;3.458;2023-05-10T04:02:02;13.60;99.90
21834;DHT22;11079;51.092;3.458;2023-05-10T04:04:30;13.60;99.90
21834;DHT22;11079;51.092;3.458;2023-05-10T04:06:58;13.70;99.90
21834;DHT22;11079;51.092;3.458;2023-05-10T04:09:32;13.80;99.90
21834;DHT22;11079;51.092;3.458;2023-05-10T04:12:02;13.80;99.90
21834;DHT22;11079;51.092;3.458;2023-05-10T04:14:28;13.80;99.90
21834;DHT22;11079;51.092;3.458;2023-05-10T04:16:53;13.80;99.90
21834;DHT22;11079;51.092;3.458;2023-05-10T04:19:20;13.90;99.90
21834;DHT22;11079;51.092;3.458;2023-05-10T04:21:46;14.00;99.90
21834;DHT22;11079;51.092;3.458;2023-05-10T04:24:12;14.10;99.90
21834;DHT22;11079;51.092;3.458;2023-05-10T04:26:38;14.10;99.90
21834;DHT22;11079;51.092;3.458;2023-05-10T04:29:04;14.10;99.90
21834;DHT22;11079;51.092;3.458;2023-05-10T04:31:29;14.10;99.90
21834;DHT22;11079;51.092;3.458;2023-05-10T04:33:55;14.20;99.90
21834;DHT22;11079;51.092;3.458;2023-05-10T04:36:21;14.00;99.90
21834;DHT22;11079;51.092;3.458;2023-05-10T04:38:47;14.00;99.90
21834;DHT22;11079;51.092;3.458;2023-05-10T04:41:17;13.80;99.90
21834;DHT22;11079;51.092;3.458;2023-05-10T04:43:44;13.90;99.90
21834;DHT22;11079;51.092;3.458;2023-05-10T04:46:09;14.00;99.90
21834;DHT22;11079;51.092;3.458;2023-05-10T04:48:47;14.10;99.90
21834;DHT22;11079;51.092;3.458;2023-05-10T04:51:23;14.20;99.90
21834;DHT22;11079;51.092;3.458;2023-05-10T04:53:55;14.30;99.90
21834;DHT22;11079;51.092;3.458;2023-05-10T04:56:21;14.50;99.90
21834;DHT22;11079;51.092;3.458;2023-05-10T04:58:47;14.70;99.90
21834;DHT22;11079;51.092;3.458;2023-05-10T05:01:14;14.60;99.90
21834;DHT22;11079;51.092;3.458;2023-05-10T05:03:41;14.50;99.90
21834;DHT22;11079;51.092;3.458;2023-05-10T05:06:07;14.60;99.90
21834;DHT22;11079;51.092;3.458;2023-05-10T05:08:38;14.70;99.90
21834;DHT22;11079;51.092;3.458;2023-05-10T05:11:04;14.60;99.90
21834;DHT22;11079;51.092;3.458;2023-05-10T05:13:29;14.50;99.90
21834;DHT22;11079;51.092;3.458;2023-05-10T05:15:55;14.60;99.90
21834;DHT22;11079;51.092;3.458;2023-05-10T05:18:21;14.50;99.90
21834;DHT22;11079;51.092;3.458;2023-05-10T05:20:48;14.60;99.90
21834;DHT22;11079;51.092;3.458;2023-05-10T05:23:14;14.60;99.90
21834;DHT22;11079;51.092;3.458;2023-05-10T05:25:40;14.80;99.90
21834;DHT22;11079;51.092;3.458;2023-05-10T05:28:05;14.80;99.90
21834;DHT22;11079;51.092;3.458;2023-05-10T05:30:31;14.80;99.90
21834;DHT22;11079;51.092;3.458;2023-05-10T05:32:56;14.80;99.90
21834;DHT22;11079;51.092;3.458;2023-05-10T05:35:22;14.90;99.90
21834;DHT22;11079;51.092;3.458;2023-05-10T05:37:49;15.00;99.90
21834;DHT22;11079;51.092;3.458;2023-05-10T05:40:16;15.30;99.90
21834;DHT22;11079;51.092;3.458;2023-05-10T05:42:43;15.40;99.90
21834;DHT22;11079;51.092;3.458;2023-05-10T05:45:09;15.50;99.90
21834;DHT22;11079;51.092;3.458;2023-05-10T05:47:38;15.50;99.90
21834;DHT22;11079;51.092;3.458;2023-05-10T05:50:10;15.50;99.90
21834;DHT22;11079;51.092;3.458;2023-05-10T05:52:47;15.60;99.90
21834;DHT22;11079;51.092;3.458;2023-05-10T05:55:14;15.80;99.90
21834;DHT22;11079;51.092;3.458;2023-05-10T05:57:41;15.90;99.90
21834;DHT22;11079;51.092;3.458;2023-05-10T06:00:07;16.20;99.90
21834;DHT22;11079;51.092;3.458;2023-05-10T06:02:32;16.50;99.90
21834;DHT22;11079;51.092;3.458;2023-05-10T06:04:58;16.90;99.90
21834;DHT22;11079;51.092;3.458;2023-05-10T06:07:24;17.10;99.90
21834;DHT22;11079;51.092;3.458;2023-05-10T06:09:53;17.20;99.90
21834;DHT22;11079;51.092;3.458;2023-05-10T06:12:20;17.20;99.90
21834;DHT22;11079;51.092;3.458;2023-05-10T06:14:47;17.30;99.90
21834;DHT22;11079;51.092;3.458;2023-05-10T06:17:13;17.40;99.90
21834;DHT22;11079;51.092;3.458;2023-05-10T06:19:39;17.30;99.90
21834;DHT22;11079;51.092;3.458;2023-05-10T06:22:05;17.30;99.90
21834;DHT22;11079;51.092;3.458;2023-05-10T06:24:30;17.20;99.90
21834;DHT22;11079;51.092;3.458;2023-05-10T06:26:56;16.90;99.90
21834;DHT22;11079;51.092;3.458;2023-05-10T06:29:21;16.50;99.90
21834;DHT22;11079;51.092;3.458;2023-05-10T06:31:47;16.20;99.90
21834;DHT22;11079;51.092;3.458;2023-05-10T06:34:13;16.40;99.90
21834;DHT22;11079;51.092;3.458;2023-05-10T06:36:39;16.60;99.90
21834;DHT22;11079;51.092;3.458;2023-05-10T06:39:04;16.60;99.90
21834;DHT22;11079;51.092;3.458;2023-05-10T06:41:30;16.50;99.90
21834;DHT22;11079;51.092;3.458;2023-05-10T06:43:56;16.40;99.90
21834;DHT22;11079;51.092;3.458;2023-05-10T06:46:23;16.60;99.90
21834;DHT22;11079;51.092;3.458;2023-05-10T06:48:49;16.60;99.90
21834;DHT22;11079;51.092;3.458;2023-05-10T06:51:15;16.50;99.90
21834;DHT22;11079;51.092;3.458;2023-05-10T06:53:41;17.70;99.90
21834;DHT22;11079;51.092;3.458;2023-05-10T06:56:06;18.90;99.90
21834;DHT22;11079;51.092;3.458;2023-05-10T06:58:32;19.00;99.90
21834;DHT22;11079;51.092;3.458;2023-05-10T07:01:03;19.20;99.90
21834;DHT22;11079;51.092;3.458;2023-05-10T07:03:28;20.30;99.90
21834;DHT22;11079;51.092;3.458;2023-05-10T07:05:54;21.00;99.90
21834;DHT22;11079;51.092;3.458;2023-05-10T07:08:25;20.90;99.90
21834;DHT22;11079;51.092;3.458;2023-05-10T07:10:51;20.00;99.90
21834;DHT22;11079;51.092;3.458;2023-05-10T07:13:16;19.50;99.90
21834;DHT22;11079;51.092;3.458;2023-05-10T07:15:42;19.40;99.90
21834;DHT22;11079;51.092;3.458;2023-05-10T07:18:08;19.00;99.90
21834;DHT22;11079;51.092;3.458;2023-05-10T07:20:33;18.90;99.90
21834;DHT22;11079;51.092;3.458;2023-05-10T07:22:59;19.00;99.90
21834;DHT22;11079;51.092;3.458;2023-05-10T07:25:25;18.90;99.90
21834;DHT22;11079;51.092;3.458;2023-05-10T07:27:53;19.20;99.90
21834;DHT22;11079;51.092;3.458;2023-05-10T07:30:18;19.60;99.90
21834;DHT22;11079;51.092;3.458;2023-05-10T07:32:44;19.50;99.90
21834;DHT22;11079;51.092;3.458;2023-05-10T07:35:10;19.30;99.90
21834;DHT22;11079;51.092;3.458;2023-05-10T07:37:36;18.90;99.90
21834;DHT22;11079;51.092;3.458;2023-05-10T07:40:02;18.10;99.90
21834;DHT22;11079;51.092;3.458;2023-05-10T07:42:28;18.00;99.90
21834;DHT22;11079;51.092;3.458;2023-05-10T07:44:54;18.00;99.90
21834;DHT22;11079;51.092;3.458;2023-05-10T07:47:20;18.20;99.90
21834;DHT22;11079;51.092;3.458;2023-05-10T07:49:45;18.10;99.90
21834;DHT22;11079;51.092;3.458;2023-05-10T07:52:11;18.10;99.90
21834;DHT22;11079;51.092;3.458;2023-05-10T07:54:37;18.20;99.90
21834;DHT22;11079;51.092;3.458;2023-05-10T07:57:03;18.30;99.90
21834;DHT22;11079;51.092;3.458;2023-05-10T07:59:28;18.20;99.90
21834;DHT22;11079;51.092;3.458;2023-05-10T08:01:56;18.10;99.90
21834;DHT22;11079;51.092;3.458;2023-05-10T08:04:22;18.10;99.90
21834;DHT22;11079;51.092;3.458;2023-05-10T08:06:47;18.00;99.90
21834;DHT22;11079;51.092;3.458;2023-05-10T08:09:14;17.80;99.90
21834;DHT22;11079;51.092;3.458;2023-05-10T08:11:40;17.60;99.90
21834;DHT22;11079;51.092;3.458;2023-05-10T08:14:06;17.40;99.90
21834;DHT22;11079;51.092;3.458;2023-05-10T08:16:32;17.00;99.90
21834;DHT22;11079;51.092;3.458;2023-05-10T08:18:57;16.80;99.90
21834;DHT22;11079;51.092;3.458;2023-05-10T08:21:23;16.60;99.90
21834;DHT22;11079;51.092;3.458;2023-05-10T08:23:49;16.50;99.90
21834;DHT22;11079;51.092;3.458;2023-05-10T08:26:14;16.70;99.90
21834;DHT22;11079;51.092;3.458;2023-05-10T08:28:40;16.90;99.90
21834;DHT22;11079;51.092;3.458;2023-05-10T08:31:06;17.30;99.90
21834;DHT22;11079;51.092;3.458;2023-05-10T08:33:31;17.80;99.90
21834;DHT22;11079;51.092;3.458;2023-05-10T08:35:57;18.60;99.90
21834;DHT22;11079;51.092;3.458;2023-05-10T08:38:23;20.20;99.90
21834;DHT22;11079;51.092;3.458;2023-05-10T08:40:49;21.50;99.90
21834;DHT22;11079;51.092;3.458;2023-05-10T08:43:16;22.50;99.90
21834;DHT22;11079;51.092;3.458;2023-05-10T08:45:43;22.30;99.90
21834;DHT22;11079;51.092;3.458;2023-05-10T08:48:11;22.00;99.90
21834;DHT22;11079;51.092;3.458;2023-05-10T08:50:39;21.20;99.90
21834;DHT22;11079;51.092;3.458;2023-05-10T08:53:11;20.50;99.90
21834;DHT22;11079;51.092;3.458;2023-05-10T08:55:37;20.40;99.90
21834;DHT22;11079;51.092;3.458;2023-05-10T08:58:05;20.40;99.90
21834;DHT22;11079;51.092;3.458;2023-05-10T09:00:31;19.90;99.90
21834;DHT22;11079;51.092;3.458;2023-05-10T09:03:00;19.90;99.90
21834;DHT22;11079;51.092;3.458;2023-05-10T09:05:26;20.20;99.90
21834;DHT22;11079;51.092;3.458;2023-05-10T09:07:52;20.40;99.90
21834;DHT22;11079;51.092;3.458;2023-05-10T09:10:19;20.40;99.90
21834;DHT22;11079;51.092;3.458;2023-05-10T09:12:45;20.40;99.90
21834;DHT22;11079;51.092;3.458;2023-05-10T09:15:15;20.80;99.90
21834;DHT22;11079;51.092;3.458;2023-05-10T09:17:44;21.20;99.90
21834;DHT22;11079;51.092;3.458;2023-05-10T09:20:11;21.20;99.90
21834;DHT22;11079;51.092;3.458;2023-05-10T09:22:37;21.10;99.90
21834;DHT22;11079;51.092;3.458;2023-05-10T09:25:11;21.90;99.90
21834;DHT22;11079;51.092;3.458;2023-05-10T09:27:40;22.10;99.90
21834;DHT22;11079;51.092;3.458;2023-05-10T09:30:08;22.20;99.90
21834;DHT22;11079;51.092;3.458;2023-05-10T09:32:45;21.50;99.90
21834;DHT22;11079;51.092;3.458;2023-05-10T09:35:13;21.00;99.90
21834;DHT22;11079;51.092;3.458;2023-05-10T09:37:41;20.50;99.90
21834;DHT22;11079;51.092;3.458;2023-05-10T09:40:12;20.40;99.90
21834;DHT22;11079;51.092;3.458;2023-05-10T09:42:38;20.10;99.90
21834;DHT22;11079;51.092;3.458;2023-05-10T09:45:05;19.90;99.90
21834;DHT22;11079;51.092;3.458;2023-05-10T09:47:34;19.90;99.90
21834;DHT22;11079;51.092;3.458;2023-05-10T09:50:02;20.10;99.90
21834;DHT22;11079;51.092;3.458;2023-05-10T09:55:45;20.30;99.90
21834;DHT22;11079;51.092;3.458;2023-05-10T09:58:12;20.40;99.90
21834;DHT22;11079;51.092;3.458;2023-05-10T10:00:42;20.20;99.90
21834;DHT22;11079;51.092;3.458;2023-05-10T10:03:20;20.20;99.90
21834;DHT22;11079;51.092;3.458;2023-05-10T10:05:47;20.60;99.90
21834;DHT22;11079;51.092;3.458;2023-05-10T10:08:15;20.00;99.90
21834;DHT22;11079;51.092;3.458;2023-05-10T10:10:41;20.50;99.90
21834;DHT22;11079;51.092;3.458;2023-05-10T10:13:07;20.60;99.90
21834;DHT22;11079;51.092;3.458;2023-05-10T10:15:34;20.60;99.90
21834;DHT22;11079;51.092;3.458;2023-05-10T10:18:00;20.10;99.90
21834;DHT22;11079;51.092;3.458;2023-05-10T10:20:29;19.40;99.90
21834;DHT22;11079;51.092;3.458;2023-05-10T10:22:55;18.80;99.90
21834;DHT22;11079;51.092;3.458;2023-05-10T10:25:21;18.30;99.90
21834;DHT22;11079;51.092;3.458;2023-05-10T10:30:43;17.60;99.90
21834;DHT22;11079;51.092;3.458;2023-05-10T10:35:53;17.40;99.90
21834;DHT22;11079;51.092;3.458;2023-05-10T10:38:22;17.00;99.90
21834;DHT22;11079;51.092;3.458;2023-05-10T10:40:48;16.40;99.90
21834;DHT22;11079;51.092;3.458;2023-05-10T10:43:27;16.20;99.90
21834;DHT22;11079;51.092;3.458;2023-05-10T10:46:14;15.90;99.90
21834;DHT22;11079;51.092;3.458;2023-05-10T10:55:18;15.70;99.90
21834;DHT22;11079;51.092;3.458;2023-05-10T10:57:56;15.40;99.90
21834;DHT22;11079;51.092;3.458;2023-05-10T11:00:42;15.60;99.90
21834;DHT22;11079;51.092;3.458;2023-05-10T11:03:11;16.00;99.90
21834;DHT22;11079;51.092;3.458;2023-05-10T11:05:55;16.40;99.90
21834;DHT22;11079;51.092;3.458;2023-05-10T11:08:31;16.80;99.90
21834;DHT22;11079;51.092;3.458;2023-05-10T11:13:43;17.90;99.90
21834;DHT22;11079;51.092;3.458;2023-05-10T11:16:20;17.70;99.90
21834;DHT22;11079;51.092;3.458;2023-05-10T11:19:00;17.20;99.90
21834;DHT22;11079;51.092;3.458;2023-05-10T11:21:31;16.90;99.90
21834;DHT22;11079;51.092;3.458;2023-05-10T11:23:59;16.50;99.90
21834;DHT22;11079;51.092;3.458;2023-05-10T11:26:30;16.60;99.90
21834;DHT22;11079;51.092;3.458;2023-05-10T11:28:56;16.50;99.90
21834;DHT22;11079;51.092;3.458;2023-05-10T11:31:24;16.00;99.90
21834;DHT22;11079;51.092;3.458;2023-05-10T11:33:57;15.80;99.90
21834;DHT22;11079;51.092;3.458;2023-05-10T11:36:29;15.70;99.90
21834;DHT22;11079;51.092;3.458;2023-05-10T11:38:56;15.50;99.90
21834;DHT22;11079;51.092;3.458;2023-05-10T11:41:23;15.70;99.90
21834;DHT22;11079;51.092;3.458;2023-05-10T11:43:52;15.70;99.90
21834;DHT22;11079;51.092;3.458;2023-05-10T11:46:21;16.20;99.90
21834;DHT22;11079;51.092;3.458;2023-05-10T11:48:50;16.60;99.90
21834;DHT22;11079;51.092;3.458;2023-05-10T11:51:23;17.00;99.90
21834;DHT22;11079;51.092;3.458;2023-05-10T11:53:51;17.10;99.90
21834;DHT22;11079;51.092;3.458;2023-05-10T11:56:18;17.20;99.90
21834;DHT22;11079;51.092;3.458;2023-05-10T11:58:51;17.30;99.90
21834;DHT22;11079;51.092;3.458;2023-05-10T12:01:17;17.20;99.90
21834;DHT22;11079;51.092;3.458;2023-05-10T12:03:42;17.10;99.90
21834;DHT22;11079;51.092;3.458;2023-05-10T12:06:08;17.20;99.90
21834;DHT22;11079;51.092;3.458;2023-05-10T12:08:34;17.20;99.90
21834;DHT22;11079;51.092;3.458;2023-05-10T12:11:09;17.50;99.90
21834;DHT22;11079;51.092;3.458;2023-05-10T12:13:40;17.20;99.90
21834;DHT22;11079;51.092;3.458;2023-05-10T12:16:13;17.10;99.90
21834;DHT22;11079;51.092;3.458;2023-05-10T12:18:40;17.10;99.90
21834;DHT22;11079;51.092;3.458;2023-05-10T12:21:10;17.20;99.90
21834;DHT22;11079;51.092;3.458;2023-05-10T12:23:37;17.40;99.90
21834;DHT22;11079;51.092;3.458;2023-05-10T12:26:03;17.80;99.90
21834;DHT22;11079;51.092;3.458;2023-05-10T12:28:33;18.00;99.90
21834;DHT22;11079;51.092;3.458;2023-05-10T12:31:02;18.50;99.90
21834;DHT22;11079;51.092;3.458;2023-05-10T12:33:36;18.90;99.90
21834;DHT22;11079;51.092;3.458;2023-05-10T12:36:04;19.50;99.90
21834;DHT22;11079;51.092;3.458;2023-05-10T12:41:01;20.30;99.90
21834;DHT22;11079;51.092;3.458;2023-05-10T12:43:27;20.60;99.90
21834;DHT22;11079;51.092;3.458;2023-05-10T12:45:53;21.20;99.90
21834;DHT22;11079;51.092;3.458;2023-05-10T12:48:19;20.90;99.90
21834;DHT22;11079;51.092;3.458;2023-05-10T12:50:47;20.80;99.90
21834;DHT22;11079;51.092;3.458;2023-05-10T12:53:14;20.20;99.90
21834;DHT22;11079;51.092;3.458;2023-05-10T12:55:41;20.30;99.90
21834;DHT22;11079;51.092;3.458;2023-05-10T12:58:09;20.60;99.90
21834;DHT22;11079;51.092;3.458;2023-05-10T13:00:34;21.40;99.90
21834;DHT22;11079;51.092;3.458;2023-05-10T13:03:00;21.70;99.90
21834;DHT22;11079;51.092;3.458;2023-05-10T13:05:26;21.40;99.90
21834;DHT22;11079;51.092;3.458;2023-05-10T13:07:52;20.90;99.90
21834;DHT22;11079;51.092;3.458;2023-05-10T13:10:18;21.00;99.90
21834;DHT22;11079;51.092;3.458;2023-05-10T13:12:44;20.90;99.90
21834;DHT22;11079;51.092;3.458;2023-05-10T13:15:10;20.90;99.90
21834;DHT22;11079;51.092;3.458;2023-05-10T13:17:37;20.50;99.90
21834;DHT22;11079;51.092;3.458;2023-05-10T13:20:06;20.70;99.90
21834;DHT22;11079;51.092;3.458;2023-05-10T13:22:31;20.60;99.90
21834;DHT22;11079;51.092;3.458;2023-05-10T13:24:57;20.50;99.90
21834;DHT22;11079;51.092;3.458;2023-05-10T13:27:42;20.00;99.90
21834;DHT22;11079;51.092;3.458;2023-05-10T13:30:08;19.80;99.90
21834;DHT22;11079;51.092;3.458;2023-05-10T13:32:35;20.00;99.90
21834;DHT22;11079;51.092;3.458;2023-05-10T13:35:01;20.20;99.90
21834;DHT22;11079;51.092;3.458;2023-05-10T13:37:28;20.30;99.90
21834;DHT22;11079;51.092;3.458;2023-05-10T13:39:54;19.90;99.90
21834;DHT22;11079;51.092;3.458;2023-05-10T13:42:22;20.10;99.90
21834;DHT22;11079;51.092;3.458;2023-05-10T13:44:48;19.90;99.90
21834;DHT22;11079;51.092;3.458;2023-05-10T13:47:14;19.80;99.90
21834;DHT22;11079;51.092;3.458;2023-05-10T13:49:40;19.70;99.90
21834;DHT22;11079;51.092;3.458;2023-05-10T13:52:05;19.70;99.90
21834;DHT22;11079;51.092;3.458;2023-05-10T13:54:38;19.90;99.90
21834;DHT22;11079;51.092;3.458;2023-05-10T13:57:04;20.10;99.90
21834;DHT22;11079;51.092;3.458;2023-05-10T13:59:30;20.10;99.90
21834;DHT22;11079;51.092;3.458;2023-05-10T14:01:58;21.00;99.90
21834;DHT22;11079;51.092;3.458;2023-05-10T14:04:25;21.90;99.90
21834;DHT22;11079;51.092;3.458;2023-05-10T14:06:51;22.40;99.90
21834;DHT22;11079;51.092;3.458;2023-05-10T14:09:18;22.70;99.90
21834;DHT22;11079;51.092;3.458;2023-05-10T14:11:44;22.40;99.90
21834;DHT22;11079;51.092;3.458;2023-05-10T14:14:11;22.10;99.90
21834;DHT22;11079;51.092;3.458;2023-05-10T14:16:36;21.90;99.90
21834;DHT22;11079;51.092;3.458;2023-05-10T14:19:02;22.00;99.90
21834;DHT22;11079;51.092;3.458;2023-05-10T14:21:29;21.60;99.90
21834;DHT22;11079;51.092;3.458;2023-05-10T14:23:56;21.40;99.90
21834;DHT22;11079;51.092;3.458;2023-05-10T14:26:22;21.30;99.90
21834;DHT22;11079;51.092;3.458;2023-05-10T14:28:48;21.30;99.90
21834;DHT22;11079;51.092;3.458;2023-05-10T14:31:14;21.30;99.90
21834;DHT22;11079;51.092;3.458;2023-05-10T14:33:42;21.20;99.90
21834;DHT22;11079;51.092;3.458;2023-05-10T14:36:08;21.30;99.90
21834;DHT22;11079;51.092;3.458;2023-05-10T14:38:34;21.30;99.90
21834;DHT22;11079;51.092;3.458;2023-05-10T14:41:00;21.00;99.90
21834;DHT22;11079;51.092;3.458;2023-05-10T14:43:25;20.90;99.90
21834;DHT22;11079;51.092;3.458;2023-05-10T14:45:52;20.80;99.90
21834;DHT22;11079;51.092;3.458;2023-05-10T14:48:18;20.50;99.90
21834;DHT22;11079;51.092;3.458;2023-05-10T14:50:44;20.70;99.90
21834;DHT22;11079;51.092;3.458;2023-05-10T14:53:11;20.80;99.90
21834;DHT22;11079;51.092;3.458;2023-05-10T14:55:36;20.80;99.90
21834;DHT22;11079;51.092;3.458;2023-05-10T14:58:04;20.70;99.90
21834;DHT22;11079;51.092;3.458;2023-05-10T15:00:30;20.20;99.90
21834;DHT22;11079;51.092;3.458;2023-05-10T15:02:56;20.30;99.90
21834;DHT22;11079;51.092;3.458;2023-05-10T15:05:23;20.50;99.90
21834;DHT22;11079;51.092;3.458;2023-05-10T15:07:48;20.30;99.90
21834;DHT22;11079;51.092;3.458;2023-05-10T15:10:14;19.80;99.90
21834;DHT22;11079;51.092;3.458;2023-05-10T15:12:40;19.80;99.90
21834;DHT22;11079;51.092;3.458;2023-05-10T15:15:06;19.90;99.90
21834;DHT22;11079;51.092;3.458;2023-05-10T15:17:33;20.10;99.90
21834;DHT22;11079;51.092;3.458;2023-05-10T15:19:59;20.10;99.90
21834;DHT22;11079;51.092;3.458;2023-05-10T15:22:25;20.00;99.90
21834;DHT22;11079;51.092;3.458;2023-05-10T15:24:51;20.10;99.90
21834;DHT22;11079;51.092;3.458;2023-05-10T15:27:16;20.10;99.90
21834;DHT22;11079;51.092;3.458;2023-05-10T15:29:42;20.10;99.90
21834;DHT22;11079;51.092;3.458;2023-05-10T15:32:08;20.00;99.90
21834;DHT22;11079;51.092;3.458;2023-05-10T15:34:33;20.00;99.90
21834;DHT22;11079;51.092;3.458;2023-05-10T15:36:59;20.00;99.90
21834;DHT22;11079;51.092;3.458;2023-05-10T15:39:25;19.90;99.90
21834;DHT22;11079;51.092;3.458;2023-05-10T15:41:51;19.80;99.90
21834;DHT22;11079;51.092;3.458;2023-05-10T15:44:16;19.60;99.90
21834;DHT22;11079;51.092;3.458;2023-05-10T15:46:42;19.50;99.90
21834;DHT22;11079;51.092;3.458;2023-05-10T15:49:08;19.40;99.90
21834;DHT22;11079;51.092;3.458;2023-05-10T15:51:35;19.30;99.90
21834;DHT22;11079;51.092;3.458;2023-05-10T15:54:01;19.10;99.90
21834;DHT22;11079;51.092;3.458;2023-05-10T15:56:31;19.00;99.90
21834;DHT22;11079;51.092;3.458;2023-05-10T15:59:00;19.20;99.90
21834;DHT22;11079;51.092;3.458;2023-05-10T16:01:54;19.50;99.90
21834;DHT22;11079;51.092;3.458;2023-05-10T16:04:21;19.30;99.90
21834;DHT22;11079;51.092;3.458;2023-05-10T16:06:47;19.30;99.90
21834;DHT22;11079;51.092;3.458;2023-05-10T16:09:12;19.30;99.90
21834;DHT22;11079;51.092;3.458;2023-05-10T16:11:38;19.20;99.90
21834;DHT22;11079;51.092;3.458;2023-05-10T16:14:04;18.90;99.90